createdAt,value
2018-01-18T00:00:07.978Z,5.90
2018-01-18T00:02:35.462Z,5.80
2018-01-18T00:05:02.954Z,5.80
2018-01-18T00:07:31.186Z,5.80
2018-01-18T00:09:59.431Z,5.80
2018-01-18T00:12:27.671Z,5.80
2018-01-18T00:14:56.532Z,5.70
2018-01-18T00:17:24.390Z,5.70
2018-01-18T00:19:52.647Z,5.70
2018-01-18T00:22:20.871Z,5.60
2018-01-18T00:24:48.627Z,5.60
2018-01-18T00:27:16.089Z,5.50
2018-01-18T00:29:43.597Z,5.50
2018-01-18T00:32:11.870Z,5.50
2018-01-18T00:34:39.423Z,5.50
2018-01-18T00:37:06.891Z,5.50
2018-01-18T00:39:34.795Z,5.50
2018-01-18T00:42:03.023Z,5.50
2018-01-18T00:44:31.615Z,5.50
2018-01-18T00:46:59.480Z,5.50
2018-01-18T00:49:26.959Z,5.50
2018-01-18T00:51:54.439Z,5.40
2018-01-18T00:54:23.418Z,5.40
2018-01-18T00:56:50.936Z,5.30
2018-01-18T00:59:18.419Z,5.30
2018-01-18T01:01:46.654Z,5.30
2018-01-18T01:04:14.131Z,5.30
2018-01-18T01:06:42.008Z,5.30
2018-01-18T01:09:09.474Z,5.20
2018-01-18T01:11:37.337Z,5.20
2018-01-18T01:14:05.218Z,5.20
2018-01-18T01:16:32.691Z,5.20
2018-01-18T01:19:00.159Z,5.10
2018-01-18T01:21:28.378Z,5.10
2018-01-18T01:23:56.342Z,5.00
2018-01-18T01:26:23.903Z,4.90
2018-01-18T01:28:52.216Z,4.90
2018-01-18T01:31:20.073Z,4.90
2018-01-18T01:33:47.601Z,4.80
2018-01-18T01:36:15.479Z,4.80
2018-01-18T01:38:43.705Z,4.70
2018-01-18T01:41:11.941Z,4.70
2018-01-18T01:43:39.404Z,4.60
2018-01-18T01:46:06.871Z,4.60
2018-01-18T01:48:38.683Z,4.60
2018-01-18T01:51:07.019Z,4.60
2018-01-18T01:53:34.483Z,4.50
2018-01-18T01:56:02.769Z,4.50
2018-01-18T01:58:31.011Z,4.50
2018-01-18T02:00:59.252Z,4.50
2018-01-18T02:03:26.727Z,4.40
2018-01-18T02:05:54.606Z,4.40
2018-01-18T02:08:22.091Z,4.40
2018-01-18T02:10:49.551Z,4.30
2018-01-18T02:13:17.402Z,4.30
2018-01-18T02:15:45.283Z,4.30
2018-01-18T02:18:13.143Z,4.20
2018-01-18T02:20:41.407Z,4.10
2018-01-18T02:23:09.649Z,4.00
2018-01-18T02:25:37.147Z,3.80
2018-01-18T02:28:05.394Z,3.90
2018-01-18T02:30:32.919Z,3.80
2018-01-18T02:33:00.832Z,3.80
2018-01-18T02:35:29.023Z,3.80
2018-01-18T02:37:57.251Z,3.80
2018-01-18T02:40:26.291Z,3.80
2018-01-18T02:42:54.523Z,3.70
2018-01-18T02:45:21.991Z,3.70
2018-01-18T02:47:49.481Z,3.70
2018-01-18T02:50:16.958Z,3.60
2018-01-18T02:52:44.822Z,3.60
2018-01-18T02:55:12.688Z,3.60
2018-01-18T02:57:40.922Z,3.60
2018-01-18T03:00:08.378Z,3.50
2018-01-18T03:02:36.252Z,3.60
2018-01-18T03:05:04.479Z,3.60
2018-01-18T03:07:32.712Z,3.60
2018-01-18T03:10:00.583Z,3.60
2018-01-18T03:12:28.811Z,3.70
2018-01-18T03:14:56.676Z,3.70
2018-01-18T03:17:24.147Z,3.70
2018-01-18T03:19:52.003Z,3.70
2018-01-18T03:22:20.274Z,3.60
2018-01-18T03:24:48.156Z,3.60
2018-01-18T03:27:15.615Z,3.60
2018-01-18T03:29:43.482Z,3.60
2018-01-18T03:32:10.938Z,3.60
2018-01-18T03:34:38.815Z,3.60
2018-01-18T03:37:06.672Z,3.60
2018-01-18T03:39:34.535Z,3.60
2018-01-18T03:42:02.387Z,3.60
2018-01-18T03:44:30.258Z,3.70
2018-01-18T03:46:58.130Z,3.70
2018-01-18T03:49:25.610Z,3.70
2018-01-18T03:51:53.456Z,3.70
2018-01-18T03:54:21.691Z,3.80
2018-01-18T03:56:49.584Z,3.90
2018-01-18T03:59:17.039Z,3.90
2018-01-18T04:01:44.901Z,3.90
2018-01-18T04:04:12.375Z,4.00
2018-01-18T04:06:40.331Z,4.00
2018-01-18T04:09:07.809Z,4.10
2018-01-18T04:11:35.270Z,4.20
2018-01-18T04:14:04.007Z,4.20
2018-01-18T04:16:32.240Z,4.40
2018-01-18T04:18:59.698Z,4.40
2018-01-18T04:21:27.167Z,4.50
2018-01-18T04:23:55.019Z,4.60
2018-01-18T04:26:22.887Z,4.70
2018-01-18T04:28:50.411Z,4.80
2018-01-18T04:31:17.885Z,4.90
2018-01-18T04:33:46.168Z,5.00
2018-01-18T04:36:14.111Z,5.10
2018-01-18T04:38:41.587Z,5.10
2018-01-18T04:41:09.818Z,5.20
2018-01-18T04:43:38.118Z,5.40
2018-01-18T04:46:05.985Z,5.40
2018-01-18T04:48:34.239Z,5.50
2018-01-18T04:51:02.123Z,5.60
2018-01-18T04:53:30.373Z,5.80
2018-01-18T04:55:58.595Z,5.90
2018-01-18T04:58:26.862Z,6.10
2018-01-18T05:00:54.775Z,6.10
2018-01-18T05:03:22.641Z,6.20
2018-01-18T05:05:50.884Z,6.40
2018-01-18T05:08:19.119Z,6.60
2018-01-18T05:10:47.010Z,6.70
2018-01-18T05:13:14.466Z,6.90
2018-01-18T05:15:43.116Z,6.90
2018-01-18T05:18:10.975Z,7.10
2018-01-18T05:20:38.860Z,7.20
2018-01-18T05:23:06.727Z,7.40
2018-01-18T05:25:34.943Z,7.60
2018-01-18T05:28:02.822Z,7.70
2018-01-18T05:30:31.162Z,7.60
2018-01-18T05:32:59.772Z,7.90
2018-01-18T05:35:27.237Z,8.00
2018-01-18T05:37:55.147Z,8.10
2018-01-18T05:40:23.359Z,8.30
2018-01-18T05:42:51.601Z,8.30
2018-01-18T05:45:19.473Z,8.50
2018-01-18T05:47:47.454Z,8.70
2018-01-18T05:50:14.928Z,8.90
2018-01-18T05:52:43.164Z,9.00
2018-01-18T05:55:10.638Z,9.10
2018-01-18T05:57:38.138Z,9.00
2018-01-18T06:00:07.111Z,9.10
2018-01-18T06:02:34.575Z,9.10
2018-01-18T06:05:02.454Z,9.10
2018-01-18T06:07:30.081Z,9.10
2018-01-18T06:09:57.570Z,9.30
2018-01-18T06:12:25.095Z,9.40
2018-01-18T06:14:52.959Z,9.40
2018-01-18T06:17:21.215Z,9.40
2018-01-18T06:19:49.443Z,9.30
2018-01-18T06:22:17.307Z,9.40
2018-01-18T06:24:46.287Z,9.50
2018-01-18T06:27:13.826Z,9.60
2018-01-18T06:29:41.299Z,9.60
2018-01-18T06:32:09.104Z,9.50
2018-01-18T06:34:37.045Z,9.60
2018-01-18T06:37:04.908Z,9.60
2018-01-18T06:39:33.203Z,9.70
2018-01-18T06:42:01.074Z,9.70
2018-01-18T06:44:28.684Z,9.70
2018-01-18T06:46:56.192Z,9.70
2018-01-18T06:49:23.804Z,9.70
2018-01-18T06:51:52.419Z,9.60
2018-01-18T06:54:20.301Z,9.60
2018-01-18T06:56:48.161Z,9.50
2018-01-18T06:59:15.638Z,9.40
2018-01-18T07:01:43.888Z,9.50
2018-01-18T07:04:11.369Z,9.40
2018-01-18T07:06:39.272Z,9.40
2018-01-18T07:09:07.515Z,9.40
2018-01-18T07:11:35.831Z,9.50
2018-01-18T07:14:04.420Z,9.40
2018-01-18T07:16:31.917Z,9.50
2018-01-18T07:18:59.768Z,9.50
2018-01-18T07:21:27.638Z,9.50
2018-01-18T07:23:56.659Z,9.40
2018-01-18T07:26:24.911Z,9.50
2018-01-18T07:28:52.972Z,9.50
2018-01-18T07:31:20.848Z,9.40
2018-01-18T07:33:49.139Z,9.40
2018-01-18T07:36:16.641Z,9.40
2018-01-18T07:38:44.907Z,9.40
2018-01-18T07:41:12.827Z,9.50
2018-01-18T07:43:40.699Z,9.50
2018-01-18T07:46:09.712Z,9.30
2018-01-18T07:48:37.976Z,9.30
2018-01-18T07:51:05.856Z,9.30
2018-01-18T07:53:34.147Z,9.30
2018-01-18T07:56:02.058Z,9.30
2018-01-18T07:58:29.551Z,9.20
2018-01-18T08:00:57.869Z,9.10
2018-01-18T08:03:33.965Z,8.90
2018-01-18T08:06:02.203Z,8.50
2018-01-18T08:08:30.076Z,8.20
2018-01-18T08:10:58.451Z,7.90
2018-01-18T08:13:26.318Z,7.70
2018-01-18T08:15:53.827Z,7.70
2018-01-18T08:18:21.295Z,7.70
2018-01-18T08:20:49.823Z,7.70
2018-01-18T08:23:17.324Z,7.70
2018-01-18T08:25:44.783Z,7.60
2018-01-18T08:28:13.025Z,7.60
2018-01-18T08:30:40.488Z,7.50
2018-01-18T08:33:09.011Z,7.40
2018-01-18T08:35:37.263Z,7.30
2018-01-18T08:38:06.235Z,7.20
2018-01-18T08:40:33.764Z,6.90
2018-01-18T08:43:01.734Z,6.70
2018-01-18T08:45:29.218Z,6.40
2018-01-18T08:47:57.271Z,6.30
2018-01-18T08:50:25.544Z,6.20
2018-01-18T08:52:53.103Z,6.10
2018-01-18T08:55:21.270Z,6.10
2018-01-18T08:57:48.737Z,6.00
2018-01-18T09:00:17.601Z,5.90
2018-01-18T09:02:45.456Z,5.80
2018-01-18T09:05:13.756Z,5.80
2018-01-18T09:07:41.227Z,5.70
2018-01-18T09:10:08.772Z,5.70
2018-01-18T09:12:36.332Z,5.70
2018-01-18T09:15:04.221Z,5.70
2018-01-18T09:17:31.687Z,5.70
2018-01-18T09:19:59.170Z,5.80
2018-01-18T09:22:27.441Z,5.70
2018-01-18T09:24:56.415Z,5.80
2018-01-18T09:27:24.363Z,5.70
2018-01-18T09:29:52.183Z,5.80
2018-01-18T09:32:20.048Z,5.80
2018-01-18T09:34:47.911Z,5.80
2018-01-18T09:37:15.812Z,5.80
2018-01-18T09:39:44.085Z,5.90
2018-01-18T09:42:12.338Z,5.80
2018-01-18T09:44:39.822Z,5.80
2018-01-18T09:47:07.302Z,5.80
2018-01-18T09:49:34.771Z,5.80
2018-01-18T09:52:02.658Z,5.90
2018-01-18T09:54:30.907Z,6.00
2018-01-18T09:57:03.465Z,6.00
2018-01-18T09:59:31.424Z,6.00
2018-01-18T10:02:00.471Z,6.10
2018-01-18T10:04:27.927Z,6.10
2018-01-18T10:06:56.202Z,6.10
2018-01-18T10:09:23.725Z,6.10
2018-01-18T10:11:51.955Z,6.10
2018-01-18T10:14:20.238Z,6.20
2018-01-18T10:16:47.820Z,6.20
2018-01-18T10:19:15.291Z,6.10
2018-01-18T10:21:43.895Z,6.20
2018-01-18T10:24:11.370Z,6.20
2018-01-18T10:26:39.611Z,6.30
2018-01-18T10:29:07.888Z,6.30
2018-01-18T10:31:35.749Z,6.40
2018-01-18T10:34:04.201Z,6.60
2018-01-18T10:36:32.238Z,6.80
2018-01-18T10:38:59.712Z,6.90
2018-01-18T10:41:27.936Z,6.70
2018-01-18T10:43:56.554Z,6.60
2018-01-18T10:46:24.058Z,6.60
2018-01-18T10:48:52.332Z,6.50
2018-01-18T10:51:22.318Z,6.60
2018-01-18T10:53:50.625Z,6.80
2018-01-18T10:56:18.499Z,6.70
2018-01-18T10:58:47.073Z,6.60
2018-01-18T11:01:15.663Z,6.10
2018-01-18T11:03:43.155Z,6.20
2018-01-18T11:06:11.080Z,6.20
2018-01-18T11:08:38.954Z,6.10
2018-01-18T11:11:06.827Z,5.90
2018-01-18T11:13:34.304Z,5.90
2018-01-18T11:16:01.778Z,6.30
2018-01-18T11:18:29.248Z,6.30
2018-01-18T11:20:57.833Z,6.20
2018-01-18T11:23:26.147Z,6.20
2018-01-18T11:25:54.359Z,6.10
2018-01-18T11:28:22.511Z,6.30
2018-01-18T11:30:50.016Z,6.60
2018-01-18T11:33:18.239Z,6.70
2018-01-18T11:35:46.024Z,6.60
2018-01-18T11:38:14.249Z,6.50
2018-01-18T11:40:41.709Z,6.30
2018-01-18T11:43:09.592Z,6.10
2018-01-18T11:45:37.463Z,6.20
2018-01-18T11:48:04.952Z,6.10
2018-01-18T11:50:33.141Z,6.00
2018-01-18T11:53:01.464Z,5.90
2018-01-18T11:55:29.691Z,6.20
2018-01-18T11:57:57.439Z,6.90
2018-01-18T12:00:25.295Z,7.50
2018-01-18T12:02:53.646Z,7.10
2018-01-18T12:05:21.889Z,6.90
2018-01-18T12:54:04.717Z,5.20
2018-01-18T12:56:32.615Z,5.40
2018-01-18T12:59:00.478Z,5.50
2018-01-18T13:01:28.748Z,5.70
2018-01-18T13:03:56.649Z,5.80
2018-01-18T13:06:24.908Z,5.80
2018-01-18T13:08:53.549Z,5.80
2018-01-18T13:11:21.807Z,5.80
2018-01-18T13:13:49.654Z,5.70
2018-01-18T13:16:19.245Z,5.50
2018-01-18T13:18:46.884Z,5.30
2018-01-18T13:21:15.483Z,5.20
2018-01-18T13:23:43.295Z,5.20
2018-01-18T13:29:04.325Z,5.50
2018-01-18T13:31:32.592Z,5.60
2018-01-18T13:34:00.911Z,5.60
2018-01-18T13:36:29.811Z,5.60
2018-01-18T13:38:57.686Z,5.70
2018-01-18T13:41:25.960Z,5.70
2018-01-18T13:43:54.248Z,5.60
2018-01-18T13:46:22.118Z,5.60
2018-01-18T13:49:00.302Z,5.60
2018-01-18T13:51:27.766Z,5.70
2018-01-18T13:53:56.367Z,5.70
2018-01-18T13:56:25.695Z,5.70
2018-01-18T13:58:55.863Z,5.70
2018-01-18T14:01:23.758Z,5.80
2018-01-18T14:03:51.748Z,5.80
2018-01-18T14:06:19.979Z,5.70
2018-01-18T14:08:48.238Z,5.70
2018-01-18T14:11:17.080Z,5.70
2018-01-18T14:13:45.089Z,5.80
2018-01-18T14:16:13.975Z,5.70
2018-01-18T14:18:43.810Z,5.70
2018-01-18T14:21:11.677Z,5.70
2018-01-18T14:23:39.167Z,5.80
2018-01-18T14:26:07.317Z,5.90
2018-01-18T14:28:35.179Z,5.90
2018-01-18T14:31:03.425Z,6.00
2018-01-18T14:33:31.681Z,5.90
2018-01-18T14:35:59.947Z,5.90
2018-01-18T14:38:28.181Z,6.00
2018-01-18T14:40:55.999Z,5.90
2018-01-18T14:43:23.955Z,5.80
2018-01-18T14:45:51.820Z,5.90
2018-01-18T14:48:20.519Z,5.90
2018-01-18T14:50:48.377Z,5.80
2018-01-18T14:53:16.287Z,5.90
2018-01-18T14:55:45.335Z,5.90
2018-01-18T14:58:13.659Z,5.90
2018-01-18T15:00:41.127Z,5.90
2018-01-18T15:03:09.246Z,5.90
2018-01-18T15:05:37.482Z,5.90
2018-01-18T15:08:05.344Z,5.90
2018-01-18T15:10:33.609Z,5.90
2018-01-18T15:13:01.079Z,5.80
2018-01-18T15:15:29.335Z,5.80
2018-01-18T15:17:58.080Z,5.80
2018-01-18T15:20:25.654Z,5.80
2018-01-18T15:22:53.567Z,5.70
2018-01-18T15:25:21.467Z,5.60
2018-01-18T15:27:48.978Z,5.60
2018-01-18T15:30:16.883Z,5.60
2018-01-18T15:32:44.723Z,5.50
2018-01-18T15:35:12.954Z,5.50
2018-01-18T15:37:41.179Z,5.50
2018-01-18T15:40:08.974Z,5.50
2018-01-18T15:42:36.451Z,5.40
2018-01-18T15:45:04.765Z,5.50
2018-01-18T15:47:32.252Z,5.40
2018-01-18T15:49:59.747Z,5.40
2018-01-18T15:52:27.662Z,5.30
2018-01-18T15:54:56.253Z,5.40
2018-01-18T15:57:23.731Z,5.30
2018-01-18T15:59:51.203Z,5.10
2018-01-18T16:02:19.819Z,5.10
2018-01-18T16:04:47.282Z,5.10
2018-01-18T16:07:14.778Z,5.00
2018-01-18T16:09:43.064Z,5.10
2018-01-18T16:12:11.303Z,5.10
2018-01-18T16:14:39.543Z,5.20
2018-01-18T16:17:07.787Z,5.10
2018-01-18T16:19:35.293Z,5.10
2018-01-18T16:22:03.169Z,5.10
2018-01-18T16:24:31.888Z,5.20
2018-01-18T16:27:00.923Z,5.20
2018-01-18T16:29:29.318Z,5.10
2018-01-18T16:31:57.859Z,5.10
2018-01-18T16:34:25.768Z,5.00
2018-01-18T16:36:53.254Z,5.00
2018-01-18T16:39:21.152Z,5.00
2018-01-18T16:41:49.422Z,5.10
2018-01-18T16:44:17.749Z,5.10
2018-01-18T16:46:45.267Z,5.10
2018-01-18T16:49:13.532Z,5.00
2018-01-18T16:51:41.743Z,5.10
2018-01-18T16:54:10.032Z,5.00
2018-01-18T16:56:37.887Z,4.90
2018-01-18T16:59:05.748Z,4.90
2018-01-18T17:01:33.611Z,4.80
2018-01-18T17:04:01.091Z,4.80
2018-01-18T17:06:28.555Z,4.80
2018-01-18T17:08:56.110Z,4.80
2018-01-18T17:11:23.579Z,4.70
2018-01-18T17:13:51.078Z,4.70
2018-01-18T17:16:19.705Z,4.60
2018-01-18T17:18:47.945Z,4.50
2018-01-18T17:21:16.247Z,4.60
2018-01-18T17:23:44.834Z,4.60
2018-01-18T17:26:12.295Z,4.50
2018-01-18T17:28:40.196Z,4.60
2018-01-18T17:31:08.358Z,4.60
2018-01-18T17:33:35.840Z,4.60
2018-01-18T17:36:03.348Z,4.50
2018-01-18T17:38:31.185Z,4.40
2018-01-18T17:40:59.508Z,4.40
2018-01-18T17:43:27.456Z,4.40
2018-01-18T17:45:55.392Z,4.30
2018-01-18T17:48:23.651Z,4.30
2018-01-18T17:50:51.886Z,4.20
2018-01-18T17:53:19.799Z,4.10
2018-01-18T17:55:47.298Z,4.00
2018-01-18T17:58:14.833Z,3.90
2018-01-18T18:00:44.591Z,3.90
2018-01-18T18:03:12.067Z,3.80
2018-01-18T18:05:39.581Z,3.70
2018-01-18T18:08:07.455Z,3.60
2018-01-18T18:10:34.926Z,3.60
2018-01-18T18:13:03.568Z,3.50
2018-01-18T18:15:31.872Z,3.50
2018-01-18T18:17:59.748Z,3.40
2018-01-18T18:20:28.379Z,3.50
2018-01-18T18:22:56.912Z,3.50
2018-01-18T18:25:24.780Z,3.50
2018-01-18T18:27:53.019Z,3.50
2018-01-18T18:30:21.271Z,3.60
2018-01-18T18:32:48.800Z,3.60
2018-01-18T18:35:16.691Z,3.70
2018-01-18T18:37:44.887Z,3.80
2018-01-18T18:40:13.130Z,3.80
2018-01-18T18:42:40.628Z,3.80
2018-01-18T18:45:08.904Z,3.90
2018-01-18T18:47:36.772Z,3.90
2018-01-18T18:50:04.663Z,3.90
2018-01-18T18:52:33.299Z,3.90
2018-01-18T18:55:01.545Z,3.90
2018-01-18T18:57:29.422Z,3.80
2018-01-18T18:59:57.627Z,3.70
2018-01-18T19:02:25.896Z,3.80
2018-01-18T19:04:53.766Z,3.70
2018-01-18T19:07:22.612Z,3.70
2018-01-18T19:09:50.106Z,3.70
2018-01-18T19:12:17.983Z,3.70
2018-01-18T19:14:46.548Z,3.70
2018-01-18T19:17:14.780Z,3.80
2018-01-18T19:19:44.011Z,3.80
2018-01-18T19:22:11.897Z,3.90
2018-01-18T19:24:40.143Z,3.90
2018-01-18T19:27:09.177Z,4.00
2018-01-18T19:29:38.675Z,4.00
2018-01-18T19:32:06.993Z,4.10
2018-01-18T19:34:34.459Z,4.10
2018-01-18T19:37:03.109Z,4.20
2018-01-18T19:39:30.646Z,4.20
2018-01-18T19:41:58.115Z,4.20
2018-01-18T19:44:26.688Z,4.20
2018-01-18T19:46:55.451Z,4.30
2018-01-18T19:49:23.060Z,4.30
2018-01-18T19:51:51.451Z,4.30
2018-01-18T19:54:21.885Z,4.40
2018-01-18T19:56:49.755Z,4.20
2018-01-18T19:59:17.619Z,4.20
2018-01-18T20:01:45.975Z,4.30
2018-01-18T20:04:13.465Z,4.30
2018-01-18T20:06:41.321Z,4.40
2018-01-18T20:09:08.794Z,4.40
2018-01-18T20:11:36.347Z,4.50
2018-01-18T20:14:04.163Z,4.50
2018-01-18T20:16:32.411Z,4.40
2018-01-18T20:18:59.931Z,4.40
2018-01-18T20:21:28.084Z,4.40
2018-01-18T20:23:55.956Z,4.40
2018-01-18T20:26:23.433Z,4.50
2018-01-18T20:28:51.179Z,4.50
2018-01-18T20:31:18.807Z,4.50
2018-01-18T20:33:47.045Z,4.50
2018-01-18T20:36:15.713Z,4.50
2018-01-18T20:38:43.691Z,4.60
2018-01-18T20:41:11.164Z,4.60
2018-01-18T20:43:39.106Z,4.60
2018-01-18T20:46:06.576Z,4.70
2018-01-18T20:48:34.431Z,4.70
2018-01-18T20:51:01.918Z,4.80
2018-01-18T20:53:29.805Z,4.70
2018-01-18T20:55:57.314Z,4.70
2018-01-18T20:58:24.803Z,4.70
2018-01-18T21:00:53.773Z,4.60
2018-01-18T21:03:21.251Z,4.70
2018-01-18T21:05:49.404Z,4.70
2018-01-18T21:08:17.640Z,4.70
2018-01-18T21:10:45.852Z,4.70
2018-01-18T21:13:14.092Z,4.70
2018-01-18T21:15:41.963Z,4.70
2018-01-18T21:18:09.437Z,4.80
2018-01-18T21:20:37.817Z,4.80
2018-01-18T21:23:06.286Z,4.70
2018-01-18T21:25:33.742Z,4.70
2018-01-18T21:28:02.287Z,4.50
2018-01-18T21:30:30.179Z,4.50
2018-01-18T21:32:58.075Z,4.40
2018-01-18T21:35:25.556Z,4.40
2018-01-18T21:37:53.431Z,4.40
2018-01-18T21:40:21.295Z,4.40
2018-01-18T21:42:49.183Z,4.50
2018-01-18T21:45:17.432Z,4.50
2018-01-18T21:47:45.303Z,4.50
2018-01-18T21:50:13.190Z,4.50
2018-01-18T21:52:41.045Z,4.40
2018-01-18T21:55:10.062Z,4.30
2018-01-18T21:57:38.639Z,4.20
2018-01-18T22:00:06.654Z,4.10
2018-01-18T22:02:34.576Z,4.10
2018-01-18T22:05:02.489Z,4.00
2018-01-18T22:07:30.760Z,4.00
2018-01-18T22:09:59.427Z,4.10
2018-01-18T22:12:27.035Z,4.10
2018-01-18T22:14:54.932Z,4.10
2018-01-18T22:17:23.182Z,4.10
2018-01-18T22:19:50.743Z,4.10
2018-01-18T22:22:19.711Z,4.10
2018-01-18T22:24:47.592Z,4.10
2018-01-18T22:27:15.838Z,4.10
2018-01-18T22:29:43.712Z,4.00
2018-01-18T22:32:11.738Z,3.90
2018-01-18T22:34:40.315Z,4.00
2018-01-18T22:37:08.034Z,4.00
2018-01-18T22:39:36.260Z,4.00
2018-01-18T22:42:04.530Z,4.10
2018-01-18T22:44:31.998Z,4.20
2018-01-18T22:46:59.903Z,4.20
2018-01-18T22:49:27.680Z,4.30
2018-01-18T22:51:55.593Z,4.20
2018-01-18T22:54:23.121Z,4.20
2018-01-18T22:56:50.992Z,4.20
2018-01-18T22:59:19.239Z,4.30
2018-01-18T23:01:46.741Z,4.30
2018-01-18T23:04:14.899Z,4.40
2018-01-18T23:06:42.903Z,4.40
2018-01-18T23:09:11.156Z,4.30
2018-01-18T23:11:39.027Z,4.20
2018-01-18T23:14:07.295Z,4.20
2018-01-18T23:16:35.314Z,4.10
2018-01-18T23:19:03.425Z,4.10
2018-01-18T23:21:31.323Z,4.00
2018-01-18T23:23:59.555Z,4.00
2018-01-18T23:26:28.171Z,4.00
2018-01-18T23:28:55.634Z,4.00
2018-01-18T23:31:23.494Z,3.90
2018-01-18T23:33:51.750Z,4.00
2018-01-18T23:36:19.615Z,4.00
2018-01-18T23:38:47.858Z,4.00
2018-01-18T23:41:16.118Z,4.00
2018-01-18T23:43:43.988Z,4.00
2018-01-18T23:46:12.222Z,4.00
2018-01-18T23:48:40.395Z,3.90
2018-01-18T23:51:08.643Z,3.90
2018-01-18T23:53:36.509Z,3.90
2018-01-18T23:56:04.383Z,3.80
2018-01-18T23:58:32.237Z,3.80
